Bonny Doon, California
Current Conditions -  °F | °C
As of 7:53 AM on Wednesday 22 Oct 2014 (Local Time) from KWVI Reporting Station
Clear Clear  
Wind Chill: 51°   Ceiling: Unl
Heat Index: 51°   Visibility: 10mi
Dew Point: 46°   Wind: 5mph
Humidity: 83%   Direction: 310°NW
Pressure: 30.05"   Gusts: NA
Location:  37.0412°N, 122.124°W
Report Text: KWVI 221453Z AUTO 31004KT 10SM CLR 11/08 A3005 RMK AO2 SLP174 T01060078 53003
Loading
Personal Weather Stations






























Interactive Weather Map
Tropical Storm Tracking
New forecast layout! Learn more

10-Day Weather Forecast

Advertisements
Track Severe Weather on mobile